sensor_id;sensor_type;location;lat;lon;timestamp;temperature;humidity
18337;DHT22;9294;51.106;7.028;2022-10-16T00:00:37;21.70;99.90
18337;DHT22;9294;51.106;7.028;2022-10-16T00:03:07;21.70;99.90
18337;DHT22;9294;51.106;7.028;2022-10-16T00:05:39;21.60;99.90
18337;DHT22;9294;51.106;7.028;2022-10-16T00:08:07;21.70;99.90
18337;DHT22;9294;51.106;7.028;2022-10-16T00:10:34;21.70;99.90
18337;DHT22;9294;51.106;7.028;2022-10-16T00:13:01;21.70;99.90
18337;DHT22;9294;51.106;7.028;2022-10-16T00:15:28;21.70;99.90
18337;DHT22;9294;51.106;7.028;2022-10-16T00:17:55;21.70;99.90
18337;DHT22;9294;51.106;7.028;2022-10-16T00:20:23;21.60;99.90
18337;DHT22;9294;51.106;7.028;2022-10-16T00:22:50;21.60;99.90
18337;DHT22;9294;51.106;7.028;2022-10-16T00:25:17;21.60;99.90
18337;DHT22;9294;51.106;7.028;2022-10-16T00:27:43;21.70;99.90
18337;DHT22;9294;51.106;7.028;2022-10-16T00:30:10;21.60;99.90
18337;DHT22;9294;51.106;7.028;2022-10-16T00:32:37;21.60;99.90
18337;DHT22;9294;51.106;7.028;2022-10-16T00:35:05;21.60;99.90
18337;DHT22;9294;51.106;7.028;2022-10-16T00:37:33;21.60;99.90
18337;DHT22;9294;51.106;7.028;2022-10-16T00:40:00;21.60;99.90
18337;DHT22;9294;51.106;7.028;2022-10-16T00:42:27;21.60;99.90
18337;DHT22;9294;51.106;7.028;2022-10-16T00:44:55;21.60;99.90
18337;DHT22;9294;51.106;7.028;2022-10-16T00:47:26;21.60;99.90
18337;DHT22;9294;51.106;7.028;2022-10-16T00:49:58;21.60;99.90
18337;DHT22;9294;51.106;7.028;2022-10-16T00:52:25;21.60;99.90
18337;DHT22;9294;51.106;7.028;2022-10-16T00:54:54;21.60;99.90
18337;DHT22;9294;51.106;7.028;2022-10-16T00:57:22;21.60;99.90
18337;DHT22;9294;51.106;7.028;2022-10-16T00:59:49;21.60;99.90
18337;DHT22;9294;51.106;7.028;2022-10-16T01:02:17;21.60;99.90
18337;DHT22;9294;51.106;7.028;2022-10-16T01:04:46;21.60;99.90
18337;DHT22;9294;51.106;7.028;2022-10-16T01:07:20;21.60;99.90
18337;DHT22;9294;51.106;7.028;2022-10-16T01:10:02;21.60;99.90
18337;DHT22;9294;51.106;7.028;2022-10-16T01:12:38;21.60;99.90
18337;DHT22;9294;51.106;7.028;2022-10-16T01:15:12;21.60;99.90
18337;DHT22;9294;51.106;7.028;2022-10-16T01:17:45;21.60;99.90
18337;DHT22;9294;51.106;7.028;2022-10-16T01:20:20;21.60;99.90
18337;DHT22;9294;51.106;7.028;2022-10-16T01:23:09;21.60;99.90
18337;DHT22;9294;51.106;7.028;2022-10-16T01:25:53;21.60;99.90
18337;DHT22;9294;51.106;7.028;2022-10-16T01:28:27;21.60;99.90
18337;DHT22;9294;51.106;7.028;2022-10-16T01:30:58;21.50;99.90
18337;DHT22;9294;51.106;7.028;2022-10-16T01:33:30;21.60;99.90
18337;DHT22;9294;51.106;7.028;2022-10-16T01:36:01;21.60;99.90
18337;DHT22;9294;51.106;7.028;2022-10-16T01:38:31;21.50;99.90
18337;DHT22;9294;51.106;7.028;2022-10-16T01:41:03;21.50;99.90
18337;DHT22;9294;51.106;7.028;2022-10-16T01:43:37;21.60;99.90
18337;DHT22;9294;51.106;7.028;2022-10-16T01:46:05;21.60;99.90
18337;DHT22;9294;51.106;7.028;2022-10-16T01:48:34;21.60;99.90
18337;DHT22;9294;51.106;7.028;2022-10-16T01:51:05;21.50;99.90
18337;DHT22;9294;51.106;7.028;2022-10-16T01:53:33;21.60;99.90
18337;DHT22;9294;51.106;7.028;2022-10-16T01:56:02;21.60;99.90
18337;DHT22;9294;51.106;7.028;2022-10-16T01:58:35;21.50;99.90
18337;DHT22;9294;51.106;7.028;2022-10-16T02:01:04;21.50;99.90
18337;DHT22;9294;51.106;7.028;2022-10-16T02:03:34;21.50;99.90
18337;DHT22;9294;51.106;7.028;2022-10-16T02:06:03;21.50;99.90
18337;DHT22;9294;51.106;7.028;2022-10-16T02:08:31;21.50;99.90
18337;DHT22;9294;51.106;7.028;2022-10-16T02:10:59;21.50;99.90
18337;DHT22;9294;51.106;7.028;2022-10-16T02:13:29;21.50;99.90
18337;DHT22;9294;51.106;7.028;2022-10-16T02:15:58;21.50;99.90
18337;DHT22;9294;51.106;7.028;2022-10-16T02:18:25;21.50;99.90
18337;DHT22;9294;51.106;7.028;2022-10-16T02:20:57;21.50;99.90
18337;DHT22;9294;51.106;7.028;2022-10-16T02:23:30;21.50;99.90
18337;DHT22;9294;51.106;7.028;2022-10-16T02:26:03;21.50;99.90
18337;DHT22;9294;51.106;7.028;2022-10-16T02:28:36;21.50;99.90
18337;DHT22;9294;51.106;7.028;2022-10-16T02:31:09;21.50;99.90
18337;DHT22;9294;51.106;7.028;2022-10-16T02:33:39;21.40;99.90
18337;DHT22;9294;51.106;7.028;2022-10-16T02:36:07;21.50;99.90
18337;DHT22;9294;51.106;7.028;2022-10-16T02:38:34;21.50;99.90
18337;DHT22;9294;51.106;7.028;2022-10-16T02:41:02;21.50;99.90
18337;DHT22;9294;51.106;7.028;2022-10-16T02:43:29;21.50;99.90
18337;DHT22;9294;51.106;7.028;2022-10-16T02:45:56;21.50;99.90
18337;DHT22;9294;51.106;7.028;2022-10-16T02:48:24;21.50;99.90
18337;DHT22;9294;51.106;7.028;2022-10-16T02:50:51;21.50;99.90
18337;DHT22;9294;51.106;7.028;2022-10-16T02:53:18;21.50;99.90
18337;DHT22;9294;51.106;7.028;2022-10-16T02:55:45;21.50;99.90
18337;DHT22;9294;51.106;7.028;2022-10-16T02:58:11;21.40;99.90
18337;DHT22;9294;51.106;7.028;2022-10-16T03:00:38;21.40;99.90
18337;DHT22;9294;51.106;7.028;2022-10-16T03:03:05;21.40;99.90
18337;DHT22;9294;51.106;7.028;2022-10-16T03:05:33;21.50;99.90
18337;DHT22;9294;51.106;7.028;2022-10-16T03:08:00;21.40;99.90
18337;DHT22;9294;51.106;7.028;2022-10-16T03:10:27;21.50;99.90
18337;DHT22;9294;51.106;7.028;2022-10-16T03:12:54;21.40;99.90
18337;DHT22;9294;51.106;7.028;2022-10-16T03:15:21;21.40;99.90
18337;DHT22;9294;51.106;7.028;2022-10-16T03:17:48;21.40;99.90
18337;DHT22;9294;51.106;7.028;2022-10-16T03:20:15;21.40;99.90
18337;DHT22;9294;51.106;7.028;2022-10-16T03:22:43;21.40;99.90
18337;DHT22;9294;51.106;7.028;2022-10-16T03:25:10;21.50;99.90
18337;DHT22;9294;51.106;7.028;2022-10-16T03:27:37;21.50;99.90
18337;DHT22;9294;51.106;7.028;2022-10-16T03:30:04;21.50;99.90
18337;DHT22;9294;51.106;7.028;2022-10-16T03:32:31;21.50;99.90
18337;DHT22;9294;51.106;7.028;2022-10-16T03:34:58;21.40;99.90
18337;DHT22;9294;51.106;7.028;2022-10-16T03:37:25;21.40;99.90
18337;DHT22;9294;51.106;7.028;2022-10-16T03:39:53;21.40;99.90
18337;DHT22;9294;51.106;7.028;2022-10-16T03:42:20;21.40;99.90
18337;DHT22;9294;51.106;7.028;2022-10-16T03:44:47;21.40;99.90
18337;DHT22;9294;51.106;7.028;2022-10-16T03:47:14;21.40;99.90
18337;DHT22;9294;51.106;7.028;2022-10-16T03:49:40;21.40;99.90
18337;DHT22;9294;51.106;7.028;2022-10-16T03:52:07;21.30;99.90
18337;DHT22;9294;51.106;7.028;2022-10-16T03:54:34;21.40;99.90
18337;DHT22;9294;51.106;7.028;2022-10-16T03:57:02;21.40;99.90
18337;DHT22;9294;51.106;7.028;2022-10-16T03:59:29;21.40;99.90
18337;DHT22;9294;51.106;7.028;2022-10-16T04:01:56;21.40;99.90
18337;DHT22;9294;51.106;7.028;2022-10-16T04:04:23;21.40;99.90
18337;DHT22;9294;51.106;7.028;2022-10-16T04:06:50;21.30;99.90
18337;DHT22;9294;51.106;7.028;2022-10-16T04:09:17;21.40;99.90
18337;DHT22;9294;51.106;7.028;2022-10-16T04:11:44;21.40;99.90
18337;DHT22;9294;51.106;7.028;2022-10-16T04:14:12;21.40;99.90
18337;DHT22;9294;51.106;7.028;2022-10-16T04:16:39;21.40;99.90
18337;DHT22;9294;51.106;7.028;2022-10-16T04:19:06;21.30;99.90
18337;DHT22;9294;51.106;7.028;2022-10-16T04:21:32;21.30;99.90
18337;DHT22;9294;51.106;7.028;2022-10-16T04:23:59;21.40;99.90
18337;DHT22;9294;51.106;7.028;2022-10-16T04:26:26;21.40;99.90
18337;DHT22;9294;51.106;7.028;2022-10-16T04:28:53;21.40;99.90
18337;DHT22;9294;51.106;7.028;2022-10-16T04:31:21;21.40;99.90
18337;DHT22;9294;51.106;7.028;2022-10-16T04:33:48;21.40;99.90
18337;DHT22;9294;51.106;7.028;2022-10-16T04:36:15;21.40;99.90
18337;DHT22;9294;51.106;7.028;2022-10-16T04:38:41;21.40;99.90
18337;DHT22;9294;51.106;7.028;2022-10-16T04:41:08;21.40;99.90
18337;DHT22;9294;51.106;7.028;2022-10-16T04:43:35;21.40;99.90
18337;DHT22;9294;51.106;7.028;2022-10-16T04:46:02;21.30;99.90
18337;DHT22;9294;51.106;7.028;2022-10-16T04:48:31;21.40;99.90
18337;DHT22;9294;51.106;7.028;2022-10-16T04:50:58;21.40;99.90
18337;DHT22;9294;51.106;7.028;2022-10-16T04:53:25;21.30;99.90
18337;DHT22;9294;51.106;7.028;2022-10-16T04:55:52;21.30;99.90
18337;DHT22;9294;51.106;7.028;2022-10-16T04:58:19;21.30;99.90
18337;DHT22;9294;51.106;7.028;2022-10-16T05:00:46;21.30;99.90
18337;DHT22;9294;51.106;7.028;2022-10-16T05:03:13;21.40;99.90
18337;DHT22;9294;51.106;7.028;2022-10-16T05:05:44;21.30;99.90
18337;DHT22;9294;51.106;7.028;2022-10-16T05:08:11;21.30;99.90
18337;DHT22;9294;51.106;7.028;2022-10-16T05:10:39;21.30;99.90
18337;DHT22;9294;51.106;7.028;2022-10-16T05:13:05;21.30;99.90
18337;DHT22;9294;51.106;7.028;2022-10-16T05:15:33;21.30;99.90
18337;DHT22;9294;51.106;7.028;2022-10-16T05:18:00;21.30;99.90
18337;DHT22;9294;51.106;7.028;2022-10-16T05:20:27;21.30;99.90
18337;DHT22;9294;51.106;7.028;2022-10-16T05:22:55;21.30;99.90
18337;DHT22;9294;51.106;7.028;2022-10-16T05:25:22;21.30;99.90
18337;DHT22;9294;51.106;7.028;2022-10-16T05:27:49;21.30;99.90
18337;DHT22;9294;51.106;7.028;2022-10-16T05:30:16;21.40;99.90
18337;DHT22;9294;51.106;7.028;2022-10-16T05:32:46;21.40;99.90
18337;DHT22;9294;51.106;7.028;2022-10-16T05:35:14;21.40;99.90
18337;DHT22;9294;51.106;7.028;2022-10-16T05:37:41;21.50;99.90
18337;DHT22;9294;51.106;7.028;2022-10-16T05:40:10;21.50;99.90
18337;DHT22;9294;51.106;7.028;2022-10-16T05:42:38;21.40;99.90
18337;DHT22;9294;51.106;7.028;2022-10-16T05:45:06;21.50;99.90
18337;DHT22;9294;51.106;7.028;2022-10-16T05:47:35;21.50;99.90
18337;DHT22;9294;51.106;7.028;2022-10-16T05:50:02;21.40;99.90
18337;DHT22;9294;51.106;7.028;2022-10-16T05:52:29;21.50;99.90
18337;DHT22;9294;51.106;7.028;2022-10-16T05:54:58;21.50;99.90
18337;DHT22;9294;51.106;7.028;2022-10-16T05:57:28;21.50;99.90
18337;DHT22;9294;51.106;7.028;2022-10-16T05:59:55;21.50;99.90
18337;DHT22;9294;51.106;7.028;2022-10-16T06:02:22;21.50;99.90
18337;DHT22;9294;51.106;7.028;2022-10-16T06:04:49;21.50;99.90
18337;DHT22;9294;51.106;7.028;2022-10-16T06:07:18;21.50;99.90
18337;DHT22;9294;51.106;7.028;2022-10-16T06:09:48;21.40;99.90
18337;DHT22;9294;51.106;7.028;2022-10-16T06:12:15;21.40;99.90
18337;DHT22;9294;51.106;7.028;2022-10-16T06:14:47;21.40;99.90
18337;DHT22;9294;51.106;7.028;2022-10-16T06:17:14;21.30;99.90
18337;DHT22;9294;51.106;7.028;2022-10-16T06:19:41;21.30;99.90
18337;DHT22;9294;51.106;7.028;2022-10-16T06:22:08;21.40;99.90
18337;DHT22;9294;51.106;7.028;2022-10-16T06:24:35;21.40;99.90
18337;DHT22;9294;51.106;7.028;2022-10-16T06:27:03;21.30;99.90
18337;DHT22;9294;51.106;7.028;2022-10-16T06:29:33;21.30;99.90
18337;DHT22;9294;51.106;7.028;2022-10-16T06:32:01;21.40;99.90
18337;DHT22;9294;51.106;7.028;2022-10-16T06:34:27;21.40;99.90
18337;DHT22;9294;51.106;7.028;2022-10-16T06:36:54;21.40;99.90
18337;DHT22;9294;51.106;7.028;2022-10-16T06:39:21;21.50;99.90
18337;DHT22;9294;51.106;7.028;2022-10-16T06:41:48;21.50;99.90
18337;DHT22;9294;51.106;7.028;2022-10-16T06:44:15;21.50;99.90
18337;DHT22;9294;51.106;7.028;2022-10-16T06:46:42;21.50;99.90
18337;DHT22;9294;51.106;7.028;2022-10-16T06:49:10;21.50;99.90
18337;DHT22;9294;51.106;7.028;2022-10-16T06:51:37;21.50;99.90
18337;DHT22;9294;51.106;7.028;2022-10-16T06:54:09;21.50;99.90
18337;DHT22;9294;51.106;7.028;2022-10-16T06:56:36;21.50;99.90
18337;DHT22;9294;51.106;7.028;2022-10-16T06:59:03;21.50;99.90
18337;DHT22;9294;51.106;7.028;2022-10-16T07:01:32;21.50;99.90
18337;DHT22;9294;51.106;7.028;2022-10-16T07:04:02;21.50;99.90
18337;DHT22;9294;51.106;7.028;2022-10-16T07:06:33;21.40;99.90
18337;DHT22;9294;51.106;7.028;2022-10-16T07:09:04;21.50;99.90
18337;DHT22;9294;51.106;7.028;2022-10-16T07:11:33;21.50;99.90
18337;DHT22;9294;51.106;7.028;2022-10-16T07:14:03;21.50;99.90
18337;DHT22;9294;51.106;7.028;2022-10-16T07:16:33;21.50;99.90
18337;DHT22;9294;51.106;7.028;2022-10-16T07:19:02;21.50;99.90
18337;DHT22;9294;51.106;7.028;2022-10-16T07:21:32;21.50;99.90
18337;DHT22;9294;51.106;7.028;2022-10-16T07:24:01;21.50;99.90
18337;DHT22;9294;51.106;7.028;2022-10-16T07:26:32;21.50;99.90
18337;DHT22;9294;51.106;7.028;2022-10-16T07:28:59;21.50;99.90
18337;DHT22;9294;51.106;7.028;2022-10-16T07:31:27;21.60;99.90
18337;DHT22;9294;51.106;7.028;2022-10-16T07:33:54;21.50;99.90
18337;DHT22;9294;51.106;7.028;2022-10-16T07:36:21;21.50;99.90
18337;DHT22;9294;51.106;7.028;2022-10-16T07:38:49;21.50;99.90
18337;DHT22;9294;51.106;7.028;2022-10-16T07:41:18;21.50;99.90
18337;DHT22;9294;51.106;7.028;2022-10-16T07:43:45;21.50;99.90
18337;DHT22;9294;51.106;7.028;2022-10-16T07:46:12;21.50;99.90
18337;DHT22;9294;51.106;7.028;2022-10-16T07:48:39;21.50;99.90
18337;DHT22;9294;51.106;7.028;2022-10-16T07:51:11;21.50;99.90
18337;DHT22;9294;51.106;7.028;2022-10-16T07:53:38;21.40;99.90
18337;DHT22;9294;51.106;7.028;2022-10-16T07:56:07;21.40;99.90
18337;DHT22;9294;51.106;7.028;2022-10-16T07:58:35;21.30;99.90
18337;DHT22;9294;51.106;7.028;2022-10-16T08:01:04;21.30;99.90
18337;DHT22;9294;51.106;7.028;2022-10-16T08:03:31;21.30;99.90
18337;DHT22;9294;51.106;7.028;2022-10-16T08:05:59;21.30;99.90
18337;DHT22;9294;51.106;7.028;2022-10-16T08:08:27;21.30;99.90
18337;DHT22;9294;51.106;7.028;2022-10-16T08:10:54;21.30;99.90
18337;DHT22;9294;51.106;7.028;2022-10-16T08:13:22;21.40;99.90
18337;DHT22;9294;51.106;7.028;2022-10-16T08:15:49;21.30;99.90
18337;DHT22;9294;51.106;7.028;2022-10-16T08:18:16;21.40;99.90
18337;DHT22;9294;51.106;7.028;2022-10-16T08:20:43;21.40;99.90
18337;DHT22;9294;51.106;7.028;2022-10-16T08:23:10;21.40;99.90
18337;DHT22;9294;51.106;7.028;2022-10-16T08:25:40;21.50;99.90
18337;DHT22;9294;51.106;7.028;2022-10-16T08:28:10;21.50;99.90
18337;DHT22;9294;51.106;7.028;2022-10-16T08:30:38;21.60;99.90
18337;DHT22;9294;51.106;7.028;2022-10-16T08:33:05;21.60;99.90
18337;DHT22;9294;51.106;7.028;2022-10-16T08:35:32;21.60;99.90
18337;DHT22;9294;51.106;7.028;2022-10-16T08:37:59;21.60;99.90
18337;DHT22;9294;51.106;7.028;2022-10-16T08:40:28;21.60;99.90
18337;DHT22;9294;51.106;7.028;2022-10-16T08:43:23;21.60;99.90
18337;DHT22;9294;51.106;7.028;2022-10-16T08:46:11;21.70;99.90
18337;DHT22;9294;51.106;7.028;2022-10-16T08:48:45;21.60;99.90
18337;DHT22;9294;51.106;7.028;2022-10-16T08:51:18;21.60;99.90
18337;DHT22;9294;51.106;7.028;2022-10-16T08:53:50;21.70;99.90
18337;DHT22;9294;51.106;7.028;2022-10-16T08:56:18;21.70;99.90
18337;DHT22;9294;51.106;7.028;2022-10-16T08:58:46;21.70;99.90
18337;DHT22;9294;51.106;7.028;2022-10-16T09:01:16;21.70;99.90
18337;DHT22;9294;51.106;7.028;2022-10-16T09:04:11;21.70;99.90
18337;DHT22;9294;51.106;7.028;2022-10-16T09:06:53;21.70;99.90
18337;DHT22;9294;51.106;7.028;2022-10-16T09:09:38;21.60;99.90
18337;DHT22;9294;51.106;7.028;2022-10-16T09:12:29;21.70;99.90
18337;DHT22;9294;51.106;7.028;2022-10-16T09:15:21;21.60;99.90
18337;DHT22;9294;51.106;7.028;2022-10-16T09:18:00;21.60;99.90
18337;DHT22;9294;51.106;7.028;2022-10-16T09:20:42;21.50;99.90
18337;DHT22;9294;51.106;7.028;2022-10-16T09:23:16;21.50;99.90
18337;DHT22;9294;51.106;7.028;2022-10-16T09:25:49;21.40;99.90
18337;DHT22;9294;51.106;7.028;2022-10-16T09:28:18;21.40;99.90
18337;DHT22;9294;51.106;7.028;2022-10-16T09:30:46;21.40;99.90
18337;DHT22;9294;51.106;7.028;2022-10-16T09:33:17;21.30;99.90
18337;DHT22;9294;51.106;7.028;2022-10-16T09:35:45;21.40;99.90
18337;DHT22;9294;51.106;7.028;2022-10-16T09:38:25;21.40;99.90
18337;DHT22;9294;51.106;7.028;2022-10-16T09:40:53;21.50;99.90
18337;DHT22;9294;51.106;7.028;2022-10-16T09:43:23;21.40;99.90
18337;DHT22;9294;51.106;7.028;2022-10-16T09:45:55;21.50;99.90
18337;DHT22;9294;51.106;7.028;2022-10-16T09:48:25;21.50;99.90
18337;DHT22;9294;51.106;7.028;2022-10-16T09:50:58;21.60;99.90
18337;DHT22;9294;51.106;7.028;2022-10-16T09:53:42;21.60;99.90
18337;DHT22;9294;51.106;7.028;2022-10-16T09:56:11;21.60;99.90
18337;DHT22;9294;51.106;7.028;2022-10-16T09:58:42;21.50;99.90
18337;DHT22;9294;51.106;7.028;2022-10-16T10:01:13;21.50;99.90
18337;DHT22;9294;51.106;7.028;2022-10-16T10:03:43;21.50;99.90
18337;DHT22;9294;51.106;7.028;2022-10-16T10:06:21;21.50;99.90
18337;DHT22;9294;51.106;7.028;2022-10-16T10:09:16;21.50;99.90
18337;DHT22;9294;51.106;7.028;2022-10-16T10:11:50;21.50;99.90
18337;DHT22;9294;51.106;7.028;2022-10-16T10:14:33;21.50;99.90
18337;DHT22;9294;51.106;7.028;2022-10-16T10:17:14;21.50;99.90
18337;DHT22;9294;51.106;7.028;2022-10-16T10:19:48;21.60;99.90
18337;DHT22;9294;51.106;7.028;2022-10-16T10:22:28;21.50;99.90
18337;DHT22;9294;51.106;7.028;2022-10-16T10:24:57;21.50;99.90
18337;DHT22;9294;51.106;7.028;2022-10-16T10:27:35;21.60;99.90
18337;DHT22;9294;51.106;7.028;2022-10-16T10:30:10;21.70;99.90
18337;DHT22;9294;51.106;7.028;2022-10-16T10:32:47;21.70;99.90
18337;DHT22;9294;51.106;7.028;2022-10-16T10:35:22;21.60;99.90
18337;DHT22;9294;51.106;7.028;2022-10-16T10:38:00;21.70;99.90
18337;DHT22;9294;51.106;7.028;2022-10-16T10:40:39;21.70;99.90
18337;DHT22;9294;51.106;7.028;2022-10-16T10:43:19;21.60;99.90
18337;DHT22;9294;51.106;7.028;2022-10-16T10:45:52;21.60;99.90
18337;DHT22;9294;51.106;7.028;2022-10-16T10:51:31;21.60;99.90
18337;DHT22;9294;51.106;7.028;2022-10-16T10:54:11;21.60;99.90
18337;DHT22;9294;51.106;7.028;2022-10-16T10:56:44;21.60;99.90
18337;DHT22;9294;51.106;7.028;2022-10-16T10:59:30;21.70;99.90
18337;DHT22;9294;51.106;7.028;2022-10-16T11:02:01;21.70;99.90
18337;DHT22;9294;51.106;7.028;2022-10-16T11:04:54;21.70;99.90
18337;DHT22;9294;51.106;7.028;2022-10-16T11:07:30;21.70;99.90
18337;DHT22;9294;51.106;7.028;2022-10-16T11:09:59;21.70;99.90
18337;DHT22;9294;51.106;7.028;2022-10-16T11:12:31;21.70;99.90
18337;DHT22;9294;51.106;7.028;2022-10-16T11:15:03;21.70;99.90
18337;DHT22;9294;51.106;7.028;2022-10-16T11:17:34;21.70;99.90
18337;DHT22;9294;51.106;7.028;2022-10-16T11:20:11;21.70;99.90
18337;DHT22;9294;51.106;7.028;2022-10-16T11:22:43;21.70;99.90
18337;DHT22;9294;51.106;7.028;2022-10-16T11:25:14;21.70;99.90
18337;DHT22;9294;51.106;7.028;2022-10-16T11:27:44;21.70;99.90
18337;DHT22;9294;51.106;7.028;2022-10-16T11:30:18;21.70;99.90
18337;DHT22;9294;51.106;7.028;2022-10-16T11:32:54;21.70;99.90
18337;DHT22;9294;51.106;7.028;2022-10-16T11:35:27;21.70;99.90
18337;DHT22;9294;51.106;7.028;2022-10-16T11:38:00;21.70;99.90
18337;DHT22;9294;51.106;7.028;2022-10-16T11:40:31;21.70;99.90
18337;DHT22;9294;51.106;7.028;2022-10-16T11:43:04;21.70;99.90
18337;DHT22;9294;51.106;7.028;2022-10-16T11:45:36;21.70;99.90
18337;DHT22;9294;51.106;7.028;2022-10-16T11:48:15;21.70;99.90
18337;DHT22;9294;51.106;7.028;2022-10-16T11:50:50;21.70;99.90
18337;DHT22;9294;51.106;7.028;2022-10-16T11:53:29;21.80;99.90
18337;DHT22;9294;51.106;7.028;2022-10-16T11:56:00;21.80;99.90
18337;DHT22;9294;51.106;7.028;2022-10-16T11:58:30;21.80;99.90
18337;DHT22;9294;51.106;7.028;2022-10-16T12:01:06;21.80;99.90
18337;DHT22;9294;51.106;7.028;2022-10-16T12:03:42;21.80;99.90
18337;DHT22;9294;51.106;7.028;2022-10-16T12:06:30;21.70;99.90
18337;DHT22;9294;51.106;7.028;2022-10-16T12:09:00;21.80;99.90
18337;DHT22;9294;51.106;7.028;2022-10-16T12:11:36;21.70;99.90
18337;DHT22;9294;51.106;7.028;2022-10-16T12:16:55;21.80;99.90
18337;DHT22;9294;51.106;7.028;2022-10-16T12:19:24;21.80;99.90
18337;DHT22;9294;51.106;7.028;2022-10-16T12:21:55;21.70;99.90
18337;DHT22;9294;51.106;7.028;2022-10-16T12:24:34;21.80;99.90
18337;DHT22;9294;51.106;7.028;2022-10-16T12:27:02;21.80;99.90
18337;DHT22;9294;51.106;7.028;2022-10-16T12:29:34;21.80;99.90
18337;DHT22;9294;51.106;7.028;2022-10-16T12:32:03;21.80;99.90
18337;DHT22;9294;51.106;7.028;2022-10-16T12:34:37;21.80;99.90
18337;DHT22;9294;51.106;7.028;2022-10-16T12:37:10;21.80;99.90
18337;DHT22;9294;51.106;7.028;2022-10-16T12:39:39;21.80;99.90
18337;DHT22;9294;51.106;7.028;2022-10-16T12:42:31;21.80;99.90
18337;DHT22;9294;51.106;7.028;2022-10-16T12:44:59;21.80;99.90
18337;DHT22;9294;51.106;7.028;2022-10-16T12:47:37;21.80;99.90
18337;DHT22;9294;51.106;7.028;2022-10-16T12:50:27;21.80;99.90
18337;DHT22;9294;51.106;7.028;2022-10-16T12:52:56;21.80;99.90
18337;DHT22;9294;51.106;7.028;2022-10-16T12:55:25;21.80;99.90
18337;DHT22;9294;51.106;7.028;2022-10-16T12:58:14;21.80;99.90
18337;DHT22;9294;51.106;7.028;2022-10-16T13:00:48;21.80;99.90
18337;DHT22;9294;51.106;7.028;2022-10-16T13:06:37;21.80;99.90
18337;DHT22;9294;51.106;7.028;2022-10-16T13:09:30;21.80;99.90
18337;DHT22;9294;51.106;7.028;2022-10-16T13:12:11;21.80;99.90
18337;DHT22;9294;51.106;7.028;2022-10-16T13:15:06;21.80;99.90
18337;DHT22;9294;51.106;7.028;2022-10-16T13:17:41;21.80;99.90
18337;DHT22;9294;51.106;7.028;2022-10-16T13:20:17;21.80;99.90
18337;DHT22;9294;51.106;7.028;2022-10-16T13:22:55;21.80;99.90
18337;DHT22;9294;51.106;7.028;2022-10-16T13:25:34;21.80;99.90
18337;DHT22;9294;51.106;7.028;2022-10-16T13:28:06;21.80;99.90
18337;DHT22;9294;51.106;7.028;2022-10-16T13:30:38;21.80;99.90
18337;DHT22;9294;51.106;7.028;2022-10-16T13:33:12;21.80;99.90
18337;DHT22;9294;51.106;7.028;2022-10-16T13:35:47;21.80;99.90
18337;DHT22;9294;51.106;7.028;2022-10-16T13:38:17;21.80;99.90
18337;DHT22;9294;51.106;7.028;2022-10-16T13:40:54;21.80;99.90
18337;DHT22;9294;51.106;7.028;2022-10-16T13:43:26;21.80;99.90
18337;DHT22;9294;51.106;7.028;2022-10-16T13:45:58;21.80;99.90
18337;DHT22;9294;51.106;7.028;2022-10-16T13:48:25;21.90;99.90
18337;DHT22;9294;51.106;7.028;2022-10-16T13:51:11;21.80;99.90
18337;DHT22;9294;51.106;7.028;2022-10-16T13:53:38;21.80;99.90
18337;DHT22;9294;51.106;7.028;2022-10-16T13:56:10;21.80;99.90
18337;DHT22;9294;51.106;7.028;2022-10-16T13:58:38;21.90;99.90
18337;DHT22;9294;51.106;7.028;2022-10-16T14:01:13;21.80;99.90
18337;DHT22;9294;51.106;7.028;2022-10-16T14:03:42;21.90;99.90
18337;DHT22;9294;51.106;7.028;2022-10-16T14:06:12;21.90;99.90
18337;DHT22;9294;51.106;7.028;2022-10-16T14:08:42;21.90;99.90
18337;DHT22;9294;51.106;7.028;2022-10-16T14:11:09;21.90;99.90
18337;DHT22;9294;51.106;7.028;2022-10-16T14:13:39;21.80;99.90
18337;DHT22;9294;51.106;7.028;2022-10-16T14:16:11;21.80;99.90
18337;DHT22;9294;51.106;7.028;2022-10-16T14:18:46;21.90;99.90
18337;DHT22;9294;51.106;7.028;2022-10-16T14:21:17;21.80;99.90
18337;DHT22;9294;51.106;7.028;2022-10-16T14:23:45;21.90;99.90
18337;DHT22;9294;51.106;7.028;2022-10-16T14:26:13;21.90;99.90
18337;DHT22;9294;51.106;7.028;2022-10-16T14:28:43;21.90;99.90
18337;DHT22;9294;51.106;7.028;2022-10-16T14:31:28;21.90;99.90
18337;DHT22;9294;51.106;7.028;2022-10-16T14:33:55;21.90;99.90
18337;DHT22;9294;51.106;7.028;2022-10-16T14:36:23;21.90;99.90
18337;DHT22;9294;51.106;7.028;2022-10-16T14:38:59;21.90;99.90
18337;DHT22;9294;51.106;7.028;2022-10-16T14:41:28;21.90;99.90
18337;DHT22;9294;51.106;7.028;2022-10-16T14:44:00;21.90;99.90
18337;DHT22;9294;51.106;7.028;2022-10-16T14:46:32;21.90;99.90
18337;DHT22;9294;51.106;7.028;2022-10-16T14:49:03;21.90;99.90
18337;DHT22;9294;51.106;7.028;2022-10-16T14:51:30;21.90;99.90
18337;DHT22;9294;51.106;7.028;2022-10-16T14:53:57;21.90;99.90
18337;DHT22;9294;51.106;7.028;2022-10-16T14:56:26;21.90;99.90
18337;DHT22;9294;51.106;7.028;2022-10-16T14:58:57;21.90;99.90
18337;DHT22;9294;51.106;7.028;2022-10-16T15:01:24;21.80;99.90
18337;DHT22;9294;51.106;7.028;2022-10-16T15:03:51;21.90;99.90
18337;DHT22;9294;51.106;7.028;2022-10-16T15:06:20;21.90;99.90
18337;DHT22;9294;51.106;7.028;2022-10-16T15:08:47;21.90;99.90
18337;DHT22;9294;51.106;7.028;2022-10-16T15:11:16;21.80;99.90
18337;DHT22;9294;51.106;7.028;2022-10-16T15:13:44;21.90;99.90
18337;DHT22;9294;51.106;7.028;2022-10-16T15:16:13;21.90;99.90
18337;DHT22;9294;51.106;7.028;2022-10-16T15:18:41;21.80;99.90
18337;DHT22;9294;51.106;7.028;2022-10-16T15:21:09;21.90;99.90
18337;DHT22;9294;51.106;7.028;2022-10-16T15:23:37;21.90;99.90
18337;DHT22;9294;51.106;7.028;2022-10-16T15:26:04;21.90;99.90
18337;DHT22;9294;51.106;7.028;2022-10-16T15:28:31;21.90;99.90
18337;DHT22;9294;51.106;7.028;2022-10-16T15:30:58;21.80;99.90
18337;DHT22;9294;51.106;7.028;2022-10-16T15:33:27;21.80;99.90
18337;DHT22;9294;51.106;7.028;2022-10-16T15:36:00;21.80;99.90
18337;DHT22;9294;51.106;7.028;2022-10-16T15:38:30;21.80;99.90
18337;DHT22;9294;51.106;7.028;2022-10-16T15:40:58;21.80;99.90
18337;DHT22;9294;51.106;7.028;2022-10-16T15:43:24;21.90;99.90
18337;DHT22;9294;51.106;7.028;2022-10-16T15:46:00;21.90;99.90
18337;DHT22;9294;51.106;7.028;2022-10-16T15:48:30;21.90;99.90
18337;DHT22;9294;51.106;7.028;2022-10-16T15:50:57;21.90;99.90
18337;DHT22;9294;51.106;7.028;2022-10-16T15:53:24;22.00;99.90
18337;DHT22;9294;51.106;7.028;2022-10-16T15:55:51;21.90;99.90
18337;DHT22;9294;51.106;7.028;2022-10-16T15:58:17;21.90;99.90
18337;DHT22;9294;51.106;7.028;2022-10-16T16:00:44;21.90;99.90
18337;DHT22;9294;51.106;7.028;2022-10-16T16:03:11;21.90;99.90
18337;DHT22;9294;51.106;7.028;2022-10-16T16:05:39;21.90;99.90
18337;DHT22;9294;51.106;7.028;2022-10-16T16:08:06;21.90;99.90
18337;DHT22;9294;51.106;7.028;2022-10-16T16:10:33;21.80;99.90
18337;DHT22;9294;51.106;7.028;2022-10-16T16:13:00;21.90;99.90
18337;DHT22;9294;51.106;7.028;2022-10-16T16:15:27;21.80;99.90